sensor_id;sensor_type;location;lat;lon;timestamp;P1;durP1;ratioP1;P2;durP2;ratioP2
17253;SDS011;32542;52.832;13.816;2023-01-13T00:01:14;5.05;;;2.20;;
17253;SDS011;32542;52.832;13.816;2023-01-13T00:04:18;5.45;;;2.78;;
17253;SDS011;32542;52.832;13.816;2023-01-13T00:07:22;3.92;;;2.88;;
17253;SDS011;32542;52.832;13.816;2023-01-13T00:10:25;4.28;;;2.58;;
17253;SDS011;32542;52.832;13.816;2023-01-13T00:13:28;6.13;;;2.75;;
17253;SDS011;32542;52.832;13.816;2023-01-13T00:16:33;4.50;;;2.47;;
17253;SDS011;32542;52.832;13.816;2023-01-13T00:19:36;5.65;;;2.55;;
17253;SDS011;32542;52.832;13.816;2023-01-13T00:22:41;10.63;;;2.78;;
17253;SDS011;32542;52.832;13.816;2023-01-13T00:25:43;5.95;;;2.30;;
17253;SDS011;32542;52.832;13.816;2023-01-13T00:28:46;9.43;;;2.80;;
17253;SDS011;32542;52.832;13.816;2023-01-13T00:31:49;15.77;;;2.78;;
17253;SDS011;32542;52.832;13.816;2023-01-13T00:34:52;7.35;;;2.50;;
17253;SDS011;32542;52.832;13.816;2023-01-13T00:37:56;3.47;;;2.13;;
17253;SDS011;32542;52.832;13.816;2023-01-13T00:41:00;4.80;;;2.50;;
17253;SDS011;32542;52.832;13.816;2023-01-13T00:44:04;3.83;;;2.28;;
17253;SDS011;32542;52.832;13.816;2023-01-13T00:47:06;4.63;;;2.28;;
17253;SDS011;32542;52.832;13.816;2023-01-13T00:50:09;4.00;;;2.53;;
17253;SDS011;32542;52.832;13.816;2023-01-13T00:53:14;5.18;;;2.42;;
17253;SDS011;32542;52.832;13.816;2023-01-13T00:56:18;5.25;;;2.22;;
17253;SDS011;32542;52.832;13.816;2023-01-13T00:59:39;4.25;;;2.13;;
17253;SDS011;32542;52.832;13.816;2023-01-13T01:02:42;4.32;;;2.38;;
17253;SDS011;32542;52.832;13.816;2023-01-13T01:05:45;5.35;;;2.53;;
17253;SDS011;32542;52.832;13.816;2023-01-13T01:08:50;5.80;;;2.20;;
17253;SDS011;32542;52.832;13.816;2023-01-13T01:11:53;5.47;;;2.08;;
17253;SDS011;32542;52.832;13.816;2023-01-13T01:14:56;3.95;;;2.15;;
17253;SDS011;32542;52.832;13.816;2023-01-13T01:17:58;3.45;;;2.13;;
17253;SDS011;32542;52.832;13.816;2023-01-13T01:21:02;3.72;;;2.25;;
17253;SDS011;32542;52.832;13.816;2023-01-13T01:24:08;2.92;;;1.90;;
17253;SDS011;32542;52.832;13.816;2023-01-13T01:27:11;3.78;;;2.13;;
17253;SDS011;32542;52.832;13.816;2023-01-13T01:30:14;3.67;;;2.40;;
17253;SDS011;32542;52.832;13.816;2023-01-13T01:33:16;3.05;;;1.75;;
17253;SDS011;32542;52.832;13.816;2023-01-13T01:36:20;5.05;;;2.25;;
17253;SDS011;32542;52.832;13.816;2023-01-13T01:39:27;2.58;;;2.00;;
17253;SDS011;32542;52.832;13.816;2023-01-13T01:42:30;2.65;;;2.03;;
17253;SDS011;32542;52.832;13.816;2023-01-13T01:45:50;4.00;;;2.17;;
17253;SDS011;32542;52.832;13.816;2023-01-13T01:48:54;3.97;;;2.00;;
17253;SDS011;32542;52.832;13.816;2023-01-13T01:52:01;3.25;;;2.28;;
17253;SDS011;32542;52.832;13.816;2023-01-13T01:55:11;2.63;;;1.75;;
17253;SDS011;32542;52.832;13.816;2023-01-13T01:58:18;3.03;;;2.13;;
17253;SDS011;32542;52.832;13.816;2023-01-13T02:01:28;3.22;;;2.20;;
17253;SDS011;32542;52.832;13.816;2023-01-13T02:04:32;4.70;;;2.47;;
17253;SDS011;32542;52.832;13.816;2023-01-13T02:07:38;3.95;;;2.05;;
17253;SDS011;32542;52.832;13.816;2023-01-13T02:10:45;3.85;;;1.92;;
17253;SDS011;32542;52.832;13.816;2023-01-13T02:13:52;3.03;;;1.92;;
17253;SDS011;32542;52.832;13.816;2023-01-13T02:20:37;3.80;;;1.90;;
17253;SDS011;32542;52.832;13.816;2023-01-13T02:24:02;4.70;;;1.88;;
17253;SDS011;32542;52.832;13.816;2023-01-13T02:27:42;1.92;;;1.67;;
17253;SDS011;32542;52.832;13.816;2023-01-13T02:31:01;3.30;;;1.92;;
17253;SDS011;32542;52.832;13.816;2023-01-13T02:34:27;3.38;;;2.05;;
17253;SDS011;32542;52.832;13.816;2023-01-13T02:37:37;5.25;;;2.13;;
17253;SDS011;32542;52.832;13.816;2023-01-13T02:40:44;3.38;;;2.00;;
17253;SDS011;32542;52.832;13.816;2023-01-13T02:43:56;2.55;;;1.70;;
17253;SDS011;32542;52.832;13.816;2023-01-13T02:47:10;2.15;;;1.42;;
17253;SDS011;32542;52.832;13.816;2023-01-13T02:50:17;2.60;;;1.90;;
17253;SDS011;32542;52.832;13.816;2023-01-13T02:53:25;3.28;;;1.90;;
17253;SDS011;32542;52.832;13.816;2023-01-13T02:56:36;3.47;;;1.80;;
17253;SDS011;32542;52.832;13.816;2023-01-13T02:59:42;2.53;;;1.80;;
17253;SDS011;32542;52.832;13.816;2023-01-13T03:02:47;2.15;;;1.50;;
17253;SDS011;32542;52.832;13.816;2023-01-13T03:05:51;2.53;;;1.60;;
17253;SDS011;32542;52.832;13.816;2023-01-13T03:08:59;2.67;;;1.75;;
17253;SDS011;32542;52.832;13.816;2023-01-13T03:12:09;2.60;;;1.90;;
17253;SDS011;32542;52.832;13.816;2023-01-13T03:15:21;3.40;;;2.30;;
17253;SDS011;32542;52.832;13.816;2023-01-13T03:18:37;2.50;;;1.73;;
17253;SDS011;32542;52.832;13.816;2023-01-13T03:21:47;2.33;;;1.70;;
17253;SDS011;32542;52.832;13.816;2023-01-13T03:24:59;2.22;;;1.50;;
17253;SDS011;32542;52.832;13.816;2023-01-13T03:28:09;2.42;;;1.70;;
17253;SDS011;32542;52.832;13.816;2023-01-13T03:31:23;3.75;;;1.80;;
17253;SDS011;32542;52.832;13.816;2023-01-13T03:34:31;2.33;;;1.77;;
17253;SDS011;32542;52.832;13.816;2023-01-13T03:37:38;3.92;;;1.80;;
17253;SDS011;32542;52.832;13.816;2023-01-13T03:40:46;1.63;;;1.40;;
17253;SDS011;32542;52.832;13.816;2023-01-13T03:43:54;2.70;;;1.90;;
17253;SDS011;32542;52.832;13.816;2023-01-13T03:47:22;2.22;;;1.70;;
17253;SDS011;32542;52.832;13.816;2023-01-13T03:50:32;1.67;;;1.52;;
17253;SDS011;32542;52.832;13.816;2023-01-13T03:53:42;2.03;;;1.40;;
17253;SDS011;32542;52.832;13.816;2023-01-13T03:56:50;1.92;;;1.60;;
17253;SDS011;32542;52.832;13.816;2023-01-13T03:59:57;1.98;;;1.48;;
17253;SDS011;32542;52.832;13.816;2023-01-13T04:03:12;1.98;;;1.60;;
17253;SDS011;32542;52.832;13.816;2023-01-13T04:06:24;1.60;;;1.40;;
17253;SDS011;32542;52.832;13.816;2023-01-13T04:09:37;1.90;;;1.50;;
17253;SDS011;32542;52.832;13.816;2023-01-13T04:12:47;3.22;;;1.50;;
17253;SDS011;32542;52.832;13.816;2023-01-13T04:16:04;2.33;;;1.50;;
17253;SDS011;32542;52.832;13.816;2023-01-13T04:19:09;2.10;;;1.45;;
17253;SDS011;32542;52.832;13.816;2023-01-13T04:22:13;2.78;;;1.67;;
17253;SDS011;32542;52.832;13.816;2023-01-13T04:25:16;3.42;;;1.52;;
17253;SDS011;32542;52.832;13.816;2023-01-13T04:28:19;2.10;;;1.45;;
17253;SDS011;32542;52.832;13.816;2023-01-13T04:31:23;2.72;;;1.65;;
17253;SDS011;32542;52.832;13.816;2023-01-13T04:34:25;1.58;;;1.40;;
17253;SDS011;32542;52.832;13.816;2023-01-13T04:37:30;2.17;;;1.50;;
17253;SDS011;32542;52.832;13.816;2023-01-13T04:40:33;3.47;;;1.58;;
17253;SDS011;32542;52.832;13.816;2023-01-13T04:43:36;1.65;;;1.40;;
17253;SDS011;32542;52.832;13.816;2023-01-13T04:46:38;3.03;;;1.40;;
17253;SDS011;32542;52.832;13.816;2023-01-13T04:49:41;2.50;;;1.33;;
17253;SDS011;32542;52.832;13.816;2023-01-13T04:52:46;2.28;;;1.63;;
17253;SDS011;32542;52.832;13.816;2023-01-13T04:55:49;1.30;;;1.20;;
17253;SDS011;32542;52.832;13.816;2023-01-13T04:58:52;2.00;;;1.25;;
17253;SDS011;32542;52.832;13.816;2023-01-13T05:01:55;2.13;;;1.40;;
17253;SDS011;32542;52.832;13.816;2023-01-13T05:04:58;1.67;;;1.40;;
17253;SDS011;32542;52.832;13.816;2023-01-13T05:08:03;1.67;;;1.40;;
17253;SDS011;32542;52.832;13.816;2023-01-13T05:11:06;1.77;;;1.30;;
17253;SDS011;32542;52.832;13.816;2023-01-13T05:14:22;2.75;;;1.40;;
17253;SDS011;32542;52.832;13.816;2023-01-13T05:17:42;2.95;;;1.40;;
17253;SDS011;32542;52.832;13.816;2023-01-13T05:20:45;1.90;;;1.40;;
17253;SDS011;32542;52.832;13.816;2023-01-13T05:23:50;1.90;;;1.30;;
17253;SDS011;32542;52.832;13.816;2023-01-13T05:27:10;1.33;;;1.23;;
17253;SDS011;32542;52.832;13.816;2023-01-13T05:30:13;1.30;;;1.20;;
17253;SDS011;32542;52.832;13.816;2023-01-13T05:33:17;1.55;;;1.10;;
17253;SDS011;32542;52.832;13.816;2023-01-13T05:36:21;3.17;;;1.45;;
17253;SDS011;32542;52.832;13.816;2023-01-13T05:39:26;1.60;;;1.20;;
17253;SDS011;32542;52.832;13.816;2023-01-13T05:42:59;1.73;;;1.25;;
17253;SDS011;32542;52.832;13.816;2023-01-13T05:46:20;2.08;;;1.60;;
17253;SDS011;32542;52.832;13.816;2023-01-13T05:49:23;2.13;;;1.35;;
17253;SDS011;32542;52.832;13.816;2023-01-13T05:52:26;1.65;;;1.33;;
17253;SDS011;32542;52.832;13.816;2023-01-13T05:55:30;2.33;;;1.42;;
17253;SDS011;32542;52.832;13.816;2023-01-13T05:58:33;1.98;;;1.42;;
17253;SDS011;32542;52.832;13.816;2023-01-13T06:01:36;1.40;;;1.30;;
17253;SDS011;32542;52.832;13.816;2023-01-13T06:04:39;1.60;;;1.40;;
17253;SDS011;32542;52.832;13.816;2023-01-13T06:07:42;1.70;;;1.30;;
17253;SDS011;32542;52.832;13.816;2023-01-13T06:10:46;1.98;;;1.10;;
17253;SDS011;32542;52.832;13.816;2023-01-13T06:13:49;1.55;;;1.20;;
17253;SDS011;32542;52.832;13.816;2023-01-13T06:16:52;2.10;;;1.00;;
17253;SDS011;32542;52.832;13.816;2023-01-13T06:19:55;1.15;;;1.02;;
17253;SDS011;32542;52.832;13.816;2023-01-13T06:22:58;3.03;;;1.23;;
17253;SDS011;32542;52.832;13.816;2023-01-13T06:26:04;1.25;;;1.15;;
17253;SDS011;32542;52.832;13.816;2023-01-13T06:29:13;1.25;;;1.13;;
17253;SDS011;32542;52.832;13.816;2023-01-13T06:32:17;1.30;;;1.20;;
17253;SDS011;32542;52.832;13.816;2023-01-13T06:35:24;1.48;;;1.38;;
17253;SDS011;32542;52.832;13.816;2023-01-13T06:38:32;1.27;;;1.17;;
17253;SDS011;32542;52.832;13.816;2023-01-13T06:41:40;1.75;;;1.30;;
17253;SDS011;32542;52.832;13.816;2023-01-13T06:45:00;1.42;;;1.10;;
17253;SDS011;32542;52.832;13.816;2023-01-13T06:48:03;1.55;;;1.02;;
17253;SDS011;32542;52.832;13.816;2023-01-13T06:51:07;1.80;;;1.27;;
17253;SDS011;32542;52.832;13.816;2023-01-13T06:54:09;1.20;;;1.10;;
17253;SDS011;32542;52.832;13.816;2023-01-13T06:57:14;2.97;;;1.17;;
17253;SDS011;32542;52.832;13.816;2023-01-13T07:00:17;1.60;;;1.40;;
17253;SDS011;32542;52.832;13.816;2023-01-13T07:03:20;2.45;;;1.10;;
17253;SDS011;32542;52.832;13.816;2023-01-13T07:06:23;1.30;;;1.13;;
17253;SDS011;32542;52.832;13.816;2023-01-13T07:09:26;1.35;;;1.20;;
17253;SDS011;32542;52.832;13.816;2023-01-13T07:12:30;1.13;;;1.00;;
17253;SDS011;32542;52.832;13.816;2023-01-13T07:15:53;1.55;;;1.20;;
17253;SDS011;32542;52.832;13.816;2023-01-13T07:18:56;2.10;;;1.40;;
17253;SDS011;32542;52.832;13.816;2023-01-13T07:21:59;1.45;;;1.10;;
17253;SDS011;32542;52.832;13.816;2023-01-13T07:25:03;4.28;;;1.35;;
17253;SDS011;32542;52.832;13.816;2023-01-13T07:28:08;11.15;;;1.48;;
17253;SDS011;32542;52.832;13.816;2023-01-13T07:31:14;3.42;;;1.38;;
17253;SDS011;32542;52.832;13.816;2023-01-13T07:34:19;2.28;;;1.10;;
17253;SDS011;32542;52.832;13.816;2023-01-13T07:37:22;1.38;;;1.20;;
17253;SDS011;32542;52.832;13.816;2023-01-13T07:40:25;1.70;;;1.10;;
17253;SDS011;32542;52.832;13.816;2023-01-13T07:43:29;2.35;;;1.73;;
17253;SDS011;32542;52.832;13.816;2023-01-13T07:46:33;2.58;;;1.40;;
17253;SDS011;32542;52.832;13.816;2023-01-13T07:49:36;2.67;;;1.20;;
17253;SDS011;32542;52.832;13.816;2023-01-13T07:52:39;3.33;;;1.27;;
17253;SDS011;32542;52.832;13.816;2023-01-13T07:55:42;1.90;;;1.13;;
17253;SDS011;32542;52.832;13.816;2023-01-13T07:58:47;1.65;;;1.05;;
17253;SDS011;32542;52.832;13.816;2023-01-13T08:01:53;2.85;;;1.25;;
17253;SDS011;32542;52.832;13.816;2023-01-13T08:04:56;2.65;;;1.10;;
17253;SDS011;32542;52.832;13.816;2023-01-13T08:07:59;3.90;;;1.20;;
17253;SDS011;32542;52.832;13.816;2023-01-13T08:11:03;3.92;;;1.20;;
17253;SDS011;32542;52.832;13.816;2023-01-13T08:14:09;3.58;;;1.40;;
17253;SDS011;32542;52.832;13.816;2023-01-13T08:17:12;2.28;;;1.40;;
17253;SDS011;32542;52.832;13.816;2023-01-13T08:20:15;1.63;;;1.20;;
17253;SDS011;32542;52.832;13.816;2023-01-13T08:23:18;3.92;;;1.13;;
17253;SDS011;32542;52.832;13.816;2023-01-13T08:26:21;3.28;;;1.20;;
17253;SDS011;32542;52.832;13.816;2023-01-13T08:29:26;1.95;;;1.30;;
17253;SDS011;32542;52.832;13.816;2023-01-13T08:32:29;2.10;;;1.20;;
17253;SDS011;32542;52.832;13.816;2023-01-13T08:35:32;6.63;;;1.40;;
17253;SDS011;32542;52.832;13.816;2023-01-13T08:38:35;3.10;;;1.05;;
17253;SDS011;32542;52.832;13.816;2023-01-13T08:41:39;3.38;;;1.25;;
17253;SDS011;32542;52.832;13.816;2023-01-13T08:44:58;5.45;;;1.05;;
17253;SDS011;32542;52.832;13.816;2023-01-13T08:48:01;1.77;;;1.10;;
17253;SDS011;32542;52.832;13.816;2023-01-13T08:51:06;1.77;;;1.10;;
17253;SDS011;32542;52.832;13.816;2023-01-13T08:54:10;1.92;;;1.20;;
17253;SDS011;32542;52.832;13.816;2023-01-13T08:57:14;3.38;;;1.20;;
17253;SDS011;32542;52.832;13.816;2023-01-13T09:00:21;3.13;;;1.05;;
17253;SDS011;32542;52.832;13.816;2023-01-13T09:03:24;2.05;;;0.90;;
17253;SDS011;32542;52.832;13.816;2023-01-13T09:06:27;2.92;;;1.23;;
17253;SDS011;32542;52.832;13.816;2023-01-13T09:09:30;5.35;;;1.40;;
17253;SDS011;32542;52.832;13.816;2023-01-13T09:12:33;5.90;;;1.27;;
17253;SDS011;32542;52.832;13.816;2023-01-13T09:15:55;10.90;;;1.25;;
17253;SDS011;32542;52.832;13.816;2023-01-13T09:18:58;6.38;;;1.83;;
17253;SDS011;32542;52.832;13.816;2023-01-13T09:22:01;15.60;;;1.85;;
17253;SDS011;32542;52.832;13.816;2023-01-13T09:25:04;5.05;;;1.30;;
17253;SDS011;32542;52.832;13.816;2023-01-13T09:28:07;4.65;;;1.20;;
17253;SDS011;32542;52.832;13.816;2023-01-13T09:31:12;6.95;;;1.40;;
17253;SDS011;32542;52.832;13.816;2023-01-13T09:34:16;5.63;;;1.48;;
17253;SDS011;32542;52.832;13.816;2023-01-13T09:37:38;8.32;;;1.70;;
17253;SDS011;32542;52.832;13.816;2023-01-13T09:40:42;7.72;;;1.60;;
17253;SDS011;32542;52.832;13.816;2023-01-13T09:43:45;13.93;;;1.70;;
17253;SDS011;32542;52.832;13.816;2023-01-13T09:46:57;9.45;;;1.50;;
17253;SDS011;32542;52.832;13.816;2023-01-13T09:50:07;7.97;;;1.30;;
17253;SDS011;32542;52.832;13.816;2023-01-13T09:53:22;9.05;;;1.45;;
17253;SDS011;32542;52.832;13.816;2023-01-13T09:56:30;6.50;;;1.90;;
17253;SDS011;32542;52.832;13.816;2023-01-13T09:59:32;5.55;;;1.30;;
17253;SDS011;32542;52.832;13.816;2023-01-13T10:02:41;6.07;;;1.30;;
17253;SDS011;32542;52.832;13.816;2023-01-13T10:06:09;4.13;;;1.27;;
17253;SDS011;32542;52.832;13.816;2023-01-13T10:09:16;3.45;;;1.13;;
17253;SDS011;32542;52.832;13.816;2023-01-13T10:12:24;5.20;;;1.33;;
17253;SDS011;32542;52.832;13.816;2023-01-13T10:19:21;3.97;;;1.30;;
17253;SDS011;32542;52.832;13.816;2023-01-13T10:25:54;6.15;;;1.27;;
17253;SDS011;32542;52.832;13.816;2023-01-13T10:29:15;6.03;;;1.38;;
17253;SDS011;32542;52.832;13.816;2023-01-13T10:32:20;8.27;;;1.10;;
17253;SDS011;32542;52.832;13.816;2023-01-13T10:38:55;3.30;;;1.40;;
17253;SDS011;32542;52.832;13.816;2023-01-13T10:42:11;5.65;;;1.45;;
17253;SDS011;32542;52.832;13.816;2023-01-13T10:45:18;3.67;;;1.38;;
17253;SDS011;32542;52.832;13.816;2023-01-13T10:48:33;3.45;;;1.50;;
17253;SDS011;32542;52.832;13.816;2023-01-13T10:51:42;3.60;;;1.48;;
17253;SDS011;32542;52.832;13.816;2023-01-13T10:54:49;3.13;;;1.30;;
17253;SDS011;32542;52.832;13.816;2023-01-13T10:57:53;3.83;;;1.23;;
17253;SDS011;32542;52.832;13.816;2023-01-13T11:01:00;1.13;;;0.90;;
17253;SDS011;32542;52.832;13.816;2023-01-13T11:04:14;6.68;;;1.35;;
17253;SDS011;32542;52.832;13.816;2023-01-13T11:07:30;3.63;;;1.30;;
17253;SDS011;32542;52.832;13.816;2023-01-13T11:10:36;3.92;;;1.10;;
17253;SDS011;32542;52.832;13.816;2023-01-13T11:13:47;1.08;;;0.90;;
17253;SDS011;32542;52.832;13.816;2023-01-13T11:17:22;3.08;;;1.20;;
17253;SDS011;32542;52.832;13.816;2023-01-13T11:20:32;1.70;;;1.13;;
17253;SDS011;32542;52.832;13.816;2023-01-13T11:23:44;4.68;;;1.15;;
17253;SDS011;32542;52.832;13.816;2023-01-13T11:26:52;2.45;;;1.00;;
17253;SDS011;32542;52.832;13.816;2023-01-13T11:30:02;3.08;;;0.95;;
17253;SDS011;32542;52.832;13.816;2023-01-13T11:33:19;2.10;;;1.00;;
17253;SDS011;32542;52.832;13.816;2023-01-13T11:36:39;4.03;;;1.20;;
17253;SDS011;32542;52.832;13.816;2023-01-13T11:39:48;4.95;;;1.00;;
17253;SDS011;32542;52.832;13.816;2023-01-13T11:42:59;5.82;;;1.40;;
17253;SDS011;32542;52.832;13.816;2023-01-13T11:46:07;2.15;;;1.00;;
17253;SDS011;32542;52.832;13.816;2023-01-13T11:49:14;2.45;;;0.95;;
17253;SDS011;32542;52.832;13.816;2023-01-13T11:52:26;3.25;;;1.00;;
17253;SDS011;32542;52.832;13.816;2023-01-13T11:55:48;4.82;;;1.30;;
17253;SDS011;32542;52.832;13.816;2023-01-13T12:02:52;3.03;;;1.20;;
17253;SDS011;32542;52.832;13.816;2023-01-13T12:06:02;2.78;;;1.10;;
17253;SDS011;32542;52.832;13.816;2023-01-13T12:09:24;1.20;;;0.82;;
17253;SDS011;32542;52.832;13.816;2023-01-13T12:12:42;5.00;;;1.00;;
17253;SDS011;32542;52.832;13.816;2023-01-13T12:16:00;1.45;;;1.00;;
17253;SDS011;32542;52.832;13.816;2023-01-13T12:19:18;2.45;;;0.93;;
17253;SDS011;32542;52.832;13.816;2023-01-13T12:22:25;2.58;;;1.10;;
17253;SDS011;32542;52.832;13.816;2023-01-13T12:25:36;3.35;;;0.95;;
17253;SDS011;32542;52.832;13.816;2023-01-13T12:28:47;2.55;;;1.15;;
17253;SDS011;32542;52.832;13.816;2023-01-13T12:31:54;1.75;;;0.90;;
17253;SDS011;32542;52.832;13.816;2023-01-13T12:35:07;1.80;;;1.10;;
17253;SDS011;32542;52.832;13.816;2023-01-13T12:38:23;2.08;;;0.93;;
17253;SDS011;32542;52.832;13.816;2023-01-13T12:41:37;1.90;;;1.00;;
17253;SDS011;32542;52.832;13.816;2023-01-13T12:45:15;1.63;;;1.02;;
17253;SDS011;32542;52.832;13.816;2023-01-13T12:52:00;1.85;;;0.95;;
17253;SDS011;32542;52.832;13.816;2023-01-13T12:55:16;1.13;;;0.90;;
17253;SDS011;32542;52.832;13.816;2023-01-13T12:58:24;1.23;;;0.95;;
17253;SDS011;32542;52.832;13.816;2023-01-13T13:01:34;1.42;;;1.00;;
17253;SDS011;32542;52.832;13.816;2023-01-13T13:04:41;1.35;;;0.80;;
17253;SDS011;32542;52.832;13.816;2023-01-13T13:07:45;3.00;;;0.93;;
17253;SDS011;32542;52.832;13.816;2023-01-13T13:10:55;1.30;;;0.90;;
17253;SDS011;32542;52.832;13.816;2023-01-13T13:14:03;1.55;;;1.08;;
17253;SDS011;32542;52.832;13.816;2023-01-13T13:21:01;0.75;;;0.73;;
17253;SDS011;32542;52.832;13.816;2023-01-13T13:24:07;2.20;;;0.80;;
17253;SDS011;32542;52.832;13.816;2023-01-13T13:27:15;2.67;;;0.98;;
17253;SDS011;32542;52.832;13.816;2023-01-13T13:30:20;1.63;;;1.13;;
17253;SDS011;32542;52.832;13.816;2023-01-13T13:33:36;1.80;;;0.98;;
17253;SDS011;32542;52.832;13.816;2023-01-13T13:36:52;1.85;;;1.08;;
17253;SDS011;32542;52.832;13.816;2023-01-13T13:40:06;1.27;;;0.80;;
17253;SDS011;32542;52.832;13.816;2023-01-13T13:43:29;4.03;;;1.33;;
17253;SDS011;32542;52.832;13.816;2023-01-13T13:46:57;2.35;;;0.80;;
17253;SDS011;32542;52.832;13.816;2023-01-13T13:50:07;2.00;;;0.88;;
17253;SDS011;32542;52.832;13.816;2023-01-13T13:53:14;1.40;;;0.93;;
17253;SDS011;32542;52.832;13.816;2023-01-13T13:56:22;2.75;;;1.02;;
17253;SDS011;32542;52.832;13.816;2023-01-13T13:59:27;1.25;;;0.90;;
17253;SDS011;32542;52.832;13.816;2023-01-13T14:02:33;1.80;;;1.02;;
17253;SDS011;32542;52.832;13.816;2023-01-13T14:05:50;0.82;;;0.80;;
17253;SDS011;32542;52.832;13.816;2023-01-13T14:08:55;1.45;;;1.10;;
17253;SDS011;32542;52.832;13.816;2023-01-13T14:11:58;2.30;;;0.98;;
17253;SDS011;32542;52.832;13.816;2023-01-13T14:15:03;3.20;;;1.00;;
17253;SDS011;32542;52.832;13.816;2023-01-13T14:18:09;2.85;;;0.65;;
17253;SDS011;32542;52.832;13.816;2023-01-13T14:21:18;1.63;;;0.98;;
17253;SDS011;32542;52.832;13.816;2023-01-13T14:24:22;1.73;;;1.00;;
17253;SDS011;32542;52.832;13.816;2023-01-13T14:27:26;1.20;;;0.95;;
17253;SDS011;32542;52.832;13.816;2023-01-13T14:30:30;2.78;;;0.90;;
17253;SDS011;32542;52.832;13.816;2023-01-13T14:33:35;1.85;;;1.42;;
17253;SDS011;32542;52.832;13.816;2023-01-13T14:36:41;1.63;;;0.90;;
17253;SDS011;32542;52.832;13.816;2023-01-13T14:39:48;1.30;;;1.00;;
17253;SDS011;32542;52.832;13.816;2023-01-13T14:42:57;0.80;;;0.80;;
17253;SDS011;32542;52.832;13.816;2023-01-13T14:46:00;2.88;;;0.88;;
17253;SDS011;32542;52.832;13.816;2023-01-13T14:49:04;1.33;;;0.90;;
17253;SDS011;32542;52.832;13.816;2023-01-13T14:52:11;1.40;;;0.98;;
17253;SDS011;32542;52.832;13.816;2023-01-13T14:55:23;1.00;;;0.80;;
17253;SDS011;32542;52.832;13.816;2023-01-13T14:58:30;1.65;;;0.90;;
17253;SDS011;32542;52.832;13.816;2023-01-13T15:01:33;2.95;;;1.08;;
17253;SDS011;32542;52.832;13.816;2023-01-13T15:04:39;2.42;;;0.88;;
17253;SDS011;32542;52.832;13.816;2023-01-13T15:07:48;0.90;;;0.80;;
17253;SDS011;32542;52.832;13.816;2023-01-13T15:10:53;1.77;;;1.08;;
17253;SDS011;32542;52.832;13.816;2023-01-13T15:14:00;1.73;;;0.98;;
17253;SDS011;32542;52.832;13.816;2023-01-13T15:17:07;1.45;;;0.90;;
17253;SDS011;32542;52.832;13.816;2023-01-13T15:20:17;1.27;;;0.90;;
17253;SDS011;32542;52.832;13.816;2023-01-13T15:23:23;2.00;;;0.90;;
17253;SDS011;32542;52.832;13.816;2023-01-13T15:26:27;1.00;;;0.90;;
17253;SDS011;32542;52.832;13.816;2023-01-13T15:29:30;4.53;;;0.90;;
17253;SDS011;32542;52.832;13.816;2023-01-13T15:32:34;1.52;;;0.90;;
17253;SDS011;32542;52.832;13.816;2023-01-13T15:35:37;1.60;;;0.73;;
17253;SDS011;32542;52.832;13.816;2023-01-13T15:38:44;1.65;;;0.80;;
17253;SDS011;32542;52.832;13.816;2023-01-13T15:41:46;2.15;;;0.90;;
17253;SDS011;32542;52.832;13.816;2023-01-13T15:45:07;1.15;;;1.00;;
17253;SDS011;32542;52.832;13.816;2023-01-13T15:48:31;2.05;;;0.70;;
17253;SDS011;32542;52.832;13.816;2023-01-13T15:51:36;0.77;;;0.73;;
17253;SDS011;32542;52.832;13.816;2023-01-13T15:54:40;1.92;;;0.90;;
17253;SDS011;32542;52.832;13.816;2023-01-13T15:57:44;0.85;;;0.80;;
17253;SDS011;32542;52.832;13.816;2023-01-13T16:00:49;1.50;;;1.05;;
17253;SDS011;32542;52.832;13.816;2023-01-13T16:03:52;1.52;;;0.90;;
17253;SDS011;32542;52.832;13.816;2023-01-13T16:06:56;1.40;;;0.70;;
17253;SDS011;32542;52.832;13.816;2023-01-13T16:10:02;1.60;;;1.10;;
17253;SDS011;32542;52.832;13.816;2023-01-13T16:13:05;1.25;;;0.90;;
17253;SDS011;32542;52.832;13.816;2023-01-13T16:16:13;0.70;;;0.70;;
17253;SDS011;32542;52.832;13.816;2023-01-13T16:19:21;1.20;;;0.82;;
17253;SDS011;32542;52.832;13.816;2023-01-13T16:22:23;0.90;;;0.70;;
17253;SDS011;32542;52.832;13.816;2023-01-13T16:25:28;1.95;;;1.05;;
17253;SDS011;32542;52.832;13.816;2023-01-13T16:28:31;1.55;;;0.90;;
17253;SDS011;32542;52.832;13.816;2023-01-13T16:31:36;1.95;;;0.80;;
17253;SDS011;32542;52.832;13.816;2023-01-13T16:34:39;1.13;;;0.70;;
17253;SDS011;32542;52.832;13.816;2023-01-13T16:37:42;0.98;;;0.80;;
17253;SDS011;32542;52.832;13.816;2023-01-13T16:40:48;1.40;;;0.80;;
17253;SDS011;32542;52.832;13.816;2023-01-13T16:43:52;1.13;;;0.70;;
17253;SDS011;32542;52.832;13.816;2023-01-13T16:46:55;2.25;;;0.80;;
17253;SDS011;32542;52.832;13.816;2023-01-13T16:49:58;1.13;;;0.70;;
17253;SDS011;32542;52.832;13.816;2023-01-13T16:53:01;1.42;;;0.80;;
17253;SDS011;32542;52.832;13.816;2023-01-13T16:56:10;1.75;;;0.80;;
17253;SDS011;32542;52.832;13.816;2023-01-13T16:59:20;1.92;;;0.77;;
17253;SDS011;32542;52.832;13.816;2023-01-13T17:02:23;1.15;;;0.82;;
17253;SDS011;32542;52.832;13.816;2023-01-13T17:05:26;1.48;;;0.75;;
17253;SDS011;32542;52.832;13.816;2023-01-13T17:08:30;1.52;;;0.73;;
17253;SDS011;32542;52.832;13.816;2023-01-13T17:11:34;1.73;;;0.90;;
17253;SDS011;32542;52.832;13.816;2023-01-13T17:14:36;1.30;;;0.95;;
17253;SDS011;32542;52.832;13.816;2023-01-13T17:17:40;5.05;;;1.50;;
17253;SDS011;32542;52.832;13.816;2023-01-13T17:20:44;7.57;;;1.35;;
17253;SDS011;32542;52.832;13.816;2023-01-13T17:23:47;9.40;;;1.60;;
17253;SDS011;32542;52.832;13.816;2023-01-13T17:26:51;4.55;;;1.27;;
17253;SDS011;32542;52.832;13.816;2023-01-13T17:29:54;5.60;;;1.25;;
17253;SDS011;32542;52.832;13.816;2023-01-13T17:32:57;12.50;;;1.98;;
17253;SDS011;32542;52.832;13.816;2023-01-13T17:36:00;11.25;;;1.10;;
17253;SDS011;32542;52.832;13.816;2023-01-13T17:39:03;8.48;;;1.80;;
17253;SDS011;32542;52.832;13.816;2023-01-13T17:42:07;4.05;;;1.38;;
17253;SDS011;32542;52.832;13.816;2023-01-13T17:45:10;11.50;;;1.35;;
17253;SDS011;32542;52.832;13.816;2023-01-13T17:48:13;14.25;;;1.77;;
17253;SDS011;32542;52.832;13.816;2023-01-13T17:51:16;8.18;;;1.60;;
17253;SDS011;32542;52.832;13.816;2023-01-13T17:54:20;7.47;;;1.60;;
17253;SDS011;32542;52.832;13.816;2023-01-13T17:57:25;11.55;;;1.63;;
17253;SDS011;32542;52.832;13.816;2023-01-13T18:00:28;6.68;;;1.33;;
17253;SDS011;32542;52.832;13.816;2023-01-13T18:03:31;9.15;;;1.63;;
17253;SDS011;32542;52.832;13.816;2023-01-13T18:06:33;9.95;;;1.50;;
17253;SDS011;32542;52.832;13.816;2023-01-13T18:09:36;13.32;;;1.73;;
17253;SDS011;32542;52.832;13.816;2023-01-13T18:12:40;6.13;;;1.40;;
17253;SDS011;32542;52.832;13.816;2023-01-13T18:15:43;7.43;;;1.23;;
17253;SDS011;32542;52.832;13.816;2023-01-13T18:18:47;8.23;;;1.58;;
17253;SDS011;32542;52.832;13.816;2023-01-13T18:21:52;9.07;;;2.15;;
17253;SDS011;32542;52.832;13.816;2023-01-13T18:25:12;11.65;;;2.35;;
17253;SDS011;32542;52.832;13.816;2023-01-13T18:28:34;7.70;;;1.65;;
17253;SDS011;32542;52.832;13.816;2023-01-13T18:31:37;8.45;;;1.90;;
17253;SDS011;32542;52.832;13.816;2023-01-13T18:34:40;4.40;;;1.35;;
17253;SDS011;32542;52.832;13.816;2023-01-13T18:37:43;18.23;;;5.30;;
17253;SDS011;32542;52.832;13.816;2023-01-13T18:40:46;51.15;;;16.70;;
17253;SDS011;32542;52.832;13.816;2023-01-13T18:43:50;22.98;;;6.80;;
17253;SDS011;32542;52.832;13.816;2023-01-13T18:46:52;32.88;;;8.93;;
17253;SDS011;32542;52.832;13.816;2023-01-13T18:49:55;29.23;;;8.95;;
17253;SDS011;32542;52.832;13.816;2023-01-13T18:52:59;20.73;;;8.05;;
17253;SDS011;32542;52.832;13.816;2023-01-13T18:56:04;27.08;;;8.73;;